Terminal Aerodrome Forecast
Issued by NWS

Home | Current Version | Previous Version | Text Only | Print | Product List | Glossary On
Versions: 1 2 3 4 5 6 7 8 9 10 11 12 13
000
FTUS43 KUNR 031120
TAFGCC
TAF
KGCC 031120Z 0312/0412 17013KT P6SM SCT150
     FM032100 13010KT P6SM BKN070 BKN100
      TEMPO 0323/0403 P6SM -TSRA BKN060CB=

USA.gov is the U.S. government's official web portal to all federal, state and local government web resources and services.